Terminal Aerodrome Forecast
Issued by NWS

Home | Current Version | Previous Version | Graphics & Text | Print | Product List | Glossary On
Versions: 1 2 3 4 5 6 7 8 9 10 11 12
210
FTUS43 KFGF 271108 AAA
TAFBJI
TAF AMD
KBJI 271108Z 2711/2806 VRB03KT P6SM VCSH BKN060
     FM271400 VRB03KT P6SM BKN070
     FM272000 01007KT P6SM SCT100=

USA.gov is the U.S. government's official web portal to all federal, state and local government web resources and services.